Matador, Texas
Current Conditions -  °F | °C
As of 6:53 PM on Friday 24 Oct 2014 (Local Time) from KCDS Reporting Station
Clear Clear  
Wind Chill: 83°   Ceiling: Unl
Heat Index: 83°   Visibility: 10mi
Dew Point: 54°   Wind: 9mph
Humidity: 37%   Direction: 200°SSW
Pressure: 30.04"   Gusts: NA
Location:  34.01°N, 100.82°W
Report Text: KCDS 242353Z AUTO 20008KT 10SM CLR 28/12 A3004 RMK AO2 SLP150 T02830122 10328 20278 56002
Loading
Personal Weather Stations






























Interactive Weather Map
Tropical Storm Tracking
New forecast layout! Learn more

10-Day Weather Forecast

Advertisements
Track Severe Weather on mobile